Time;durP1;ratioP1;P1;durP2;ratioP2;P2;SDS_P1;SDS_P2;PMS_P1;PMS_P2;Temp;Humidity;BMP_temperature;BMP_pressure;BME280_temperature;BME280_humidity;BME280_pressure;Samples;Min_cycle;Max_cycle;Signal;HPM_P1;HPM_P2
2022/06/16 00:00:06;;;;;;;2.70;2.60;;;;;;;;;;2073374;28;20216;-55
2022/06/16 00:01:07;;;;;;;3.25;3.05;;;;;;;;;;2074058;28;20230;-54
2022/06/16 00:02:11;;;;;;;4.22;3.20;;;;;;;;;;2074352;28;20203;-55
2022/06/16 00:03:11;;;;;;;3.63;3.17;;;;;;;;;;2074459;28;20204;-54
2022/06/16 00:04:12;;;;;;;3.38;3.10;;;;;;;;;;2073395;28;20354;-53
2022/06/16 00:05:14;;;;;;;4.68;3.40;;;;;;;;;;2074241;28;20195;-55
2022/06/16 00:06:14;;;;;;;4.75;3.05;;;;;;;;;;2074406;28;20165;-56
2022/06/16 00:07:15;;;;;;;5.10;3.63;;;;;;;;;;2072953;28;20165;-52
2022/06/16 00:08:16;;;;;;;4.72;3.00;;;;;;;;;;2071768;28;20196;-58
2022/06/16 00:09:16;;;;;;;3.60;3.30;;;;;;;;;;2074097;28;20190;-56
2022/06/16 00:10:17;;;;;;;4.28;3.17;;;;;;;;;;2073187;28;20287;-55
2022/06/16 00:11:19;;;;;;;3.97;3.53;;;;;;;;;;2065485;28;20256;-56
2022/06/16 00:12:19;;;;;;;3.78;3.40;;;;;;;;;;2073813;28;20173;-54
2022/06/16 00:13:20;;;;;;;3.53;3.00;;;;;;;;;;2074060;28;20165;-52
2022/06/16 00:14:23;;;;;;;4.30;3.45;;;;;;;;;;2073366;28;20183;-56
2022/06/16 00:15:24;;;;;;;4.50;3.45;;;;;;;;;;2074327;28;20543;-55
2022/06/16 00:16:25;;;;;;;4.40;3.03;;;;;;;;;;2074269;28;20205;-55
2022/06/16 00:17:25;;;;;;;5.40;3.72;;;;;;;;;;2074252;28;20236;-52
2022/06/16 00:18:26;;;;;;;4.45;3.30;;;;;;;;;;2074419;28;20162;-56
2022/06/16 00:19:26;;;;;;;4.75;3.35;;;;;;;;;;2073990;28;20490;-53
2022/06/16 00:20:27;;;;;;;5.40;3.75;;;;;;;;;;2074072;28;20819;-51
2022/06/16 00:21:27;;;;;;;3.67;3.38;;;;;;;;;;2074395;28;20569;-55
2022/06/16 00:22:28;;;;;;;4.80;3.65;;;;;;;;;;2074015;28;20165;-56
2022/06/16 00:23:28;;;;;;;4.50;3.20;;;;;;;;;;2073841;28;20237;-55
2022/06/16 00:24:28;;;;;;;3.63;3.17;;;;;;;;;;2070968;28;20185;-57
2022/06/16 00:25:29;;;;;;;4.40;3.28;;;;;;;;;;2073234;28;20207;-52
2022/06/16 00:26:29;;;;;;;5.25;3.85;;;;;;;;;;2073550;28;20184;-53
2022/06/16 00:27:30;;;;;;;3.53;3.22;;;;;;;;;;2072988;28;20173;-54
2022/06/16 00:28:30;;;;;;;4.35;3.05;;;;;;;;;;2074512;28;20638;-54
2022/06/16 00:29:33;;;;;;;3.83;3.45;;;;;;;;;;2074094;28;20222;-54
2022/06/16 00:30:33;;;;;;;3.60;3.30;;;;;;;;;;2073373;28;20185;-53
2022/06/16 00:31:34;;;;;;;6.30;3.13;;;;;;;;;;2073675;28;20181;-53
2022/06/16 00:32:35;;;;;;;3.08;2.88;;;;;;;;;;2074348;28;20222;-56
2022/06/16 00:33:36;;;;;;;3.20;2.83;;;;;;;;;;2074099;28;20220;-52
2022/06/16 00:34:36;;;;;;;3.97;3.67;;;;;;;;;;2073805;28;20169;-57
2022/06/16 00:35:37;;;;;;;3.67;3.38;;;;;;;;;;2074155;28;20223;-55
2022/06/16 00:36:38;;;;;;;3.60;3.28;;;;;;;;;;2073565;28;20185;-53
2022/06/16 00:37:39;;;;;;;4.47;3.15;;;;;;;;;;2073676;28;20745;-53
2022/06/16 00:38:39;;;;;;;4.78;3.83;;;;;;;;;;2074262;28;20236;-55
2022/06/16 00:39:40;;;;;;;4.68;3.45;;;;;;;;;;2073311;28;20177;-54
2022/06/16 00:40:40;;;;;;;6.65;4.00;;;;;;;;;;2073153;28;20204;-54
2022/06/16 00:41:40;;;;;;;3.38;3.15;;;;;;;;;;2074155;28;20282;-57
2022/06/16 00:42:42;;;;;;;3.90;3.58;;;;;;;;;;2073439;28;20173;-54
2022/06/16 00:43:43;;;;;;;4.75;3.35;;;;;;;;;;2073116;28;20168;-53
2022/06/16 00:44:45;;;;;;;3.75;3.40;;;;;;;;;;2072184;28;20633;-57
2022/06/16 00:46:01;;;;;;;3.63;3.33;;;;;;;;;;2074213;28;20231;-55
2022/06/16 00:47:01;;;;;;;5.90;3.92;;;;;;;;;;2074106;28;20189;-57
2022/06/16 00:48:02;;;;;;;4.70;3.92;;;;;;;;;;2073475;28;20280;-55
2022/06/16 00:49:05;;;;;;;4.38;3.65;;;;;;;;;;2073484;28;20251;-52
2022/06/16 00:50:05;;;;;;;6.00;3.75;;;;;;;;;;2073409;28;20744;-55
2022/06/16 00:51:26;;;;;;;5.97;4.03;;;;;;;;;;2073758;28;20289;-54
2022/06/16 00:52:28;;;;;;;4.18;3.75;;;;;;;;;;2074003;28;20203;-52
2022/06/16 00:53:29;;;;;;;5.38;3.83;;;;;;;;;;2074132;28;20165;-55
2022/06/16 00:54:34;;;;;;;4.38;3.97;;;;;;;;;;2072409;28;20184;-54
2022/06/16 00:55:35;;;;;;;4.75;3.92;;;;;;;;;;2073149;28;20564;-55
2022/06/16 00:56:35;;;;;;;5.05;4.53;;;;;;;;;;2065187;28;20188;-52
2022/06/16 00:57:38;;;;;;;7.32;3.90;;;;;;;;;;2065197;28;20260;-49
2022/06/16 00:58:40;;;;;;;5.13;3.97;;;;;;;;;;2064971;28;20220;-53
2022/06/16 00:59:43;;;;;;;4.90;4.30;;;;;;;;;;2064702;28;20169;-53
2022/06/16 01:00:45;;;;;;;5.20;4.05;;;;;;;;;;2068742;28;20192;-56
2022/06/16 01:01:46;;;;;;;4.32;3.92;;;;;;;;;;2074147;28;20641;-51
2022/06/16 01:02:47;;;;;;;4.35;4.05;;;;;;;;;;2073397;28;20319;-51
2022/06/16 01:05:07;;;;;;;4.10;3.80;;;;;;;;;;2074252;28;20241;-52
2022/06/16 01:06:24;;;;;;;4.93;3.97;;;;;;;;;;2074003;28;20240;-59
2022/06/16 01:07:28;;;;;;;5.03;4.00;;;;;;;;;;2074085;28;20164;-54
2022/06/16 01:08:29;;;;;;;4.10;3.80;;;;;;;;;;2073193;28;20223;-56
2022/06/16 01:09:31;;;;;;;4.32;3.92;;;;;;;;;;2065321;28;20170;-55
2022/06/16 01:10:45;;;;;;;3.92;3.50;;;;;;;;;;2072639;28;20189;-56
2022/06/16 01:14:39;;;;;;;4.68;3.70;;;;;;;;;;2072377;28;20531;-52
2022/06/16 01:15:45;;;;;;;6.07;3.92;;;;;;;;;;2073320;28;20224;-52
2022/06/16 01:16:46;;;;;;;4.03;3.67;;;;;;;;;;2074062;28;20577;-54
2022/06/16 01:17:47;;;;;;;4.30;3.47;;;;;;;;;;2074088;28;20215;-54
2022/06/16 01:19:06;;;;;;;6.72;3.97;;;;;;;;;;2073940;28;20547;-54
2022/06/16 01:20:19;;;;;;;4.78;4.07;;;;;;;;;;2073033;28;20193;-54
2022/06/16 01:21:37;;;;;;;4.30;3.85;;;;;;;;;;2072741;28;20240;-54
2022/06/16 01:22:44;;;;;;;5.25;3.42;;;;;;;;;;2081891;28;20164;-56
2022/06/16 01:23:47;;;;;;;4.43;3.97;;;;;;;;;;2080576;28;20168;-56
2022/06/16 01:25:06;;;;;;;4.47;3.95;;;;;;;;;;2073080;28;20205;-56
2022/06/16 01:26:21;;;;;;;4.82;4.22;;;;;;;;;;2080994;28;20717;-55
2022/06/16 01:27:21;;;;;;;7.32;3.88;;;;;;;;;;2073309;28;20182;-56
2022/06/16 01:28:25;;;;;;;5.95;4.10;;;;;;;;;;2073494;28;20168;-56
2022/06/16 01:29:44;;;;;;;4.38;4.00;;;;;;;;;;2073963;28;20192;-57
2022/06/16 01:30:47;;;;;;;4.70;4.22;;;;;;;;;;2073106;28;20202;-53
2022/06/16 01:31:59;;;;;;;4.47;3.70;;;;;;;;;;2065002;28;20670;-56
2022/06/16 01:33:07;;;;;;;4.72;3.65;;;;;;;;;;2073333;28;20185;-53
2022/06/16 01:34:08;;;;;;;6.55;4.70;;;;;;;;;;2072345;28;20172;-55
2022/06/16 01:35:30;;;;;;;4.97;3.85;;;;;;;;;;2073319;28;20180;-57
2022/06/16 01:36:41;;;;;;;4.70;4.30;;;;;;;;;;2072627;28;20234;-54
2022/06/16 01:37:51;;;;;;;4.78;4.32;;;;;;;;;;2073339;28;20654;-53
2022/06/16 01:38:51;;;;;;;4.90;4.45;;;;;;;;;;2072574;28;20176;-56
2022/06/16 01:40:10;;;;;;;5.53;3.97;;;;;;;;;;2064873;28;20260;-56
2022/06/16 01:41:20;;;;;;;6.32;4.20;;;;;;;;;;2074881;28;20197;-57
2022/06/16 01:42:28;;;;;;;6.50;4.13;;;;;;;;;;2072819;28;20181;-58
2022/06/16 01:43:34;;;;;;;4.35;3.80;;;;;;;;;;2065979;28;20165;-54
2022/06/16 01:44:38;;;;;;;5.63;3.95;;;;;;;;;;2064770;28;20170;-55
2022/06/16 01:45:46;;;;;;;4.60;4.20;;;;;;;;;;2064684;28;20180;-54
2022/06/16 01:46:55;;;;;;;5.78;4.13;;;;;;;;;;2067429;28;20224;-52
2022/06/16 01:48:00;;;;;;;4.82;3.92;;;;;;;;;;2072950;28;20700;-55
2022/06/16 01:49:05;;;;;;;4.88;4.28;;;;;;;;;;2064773;28;20244;-54
2022/06/16 01:50:09;;;;;;;4.47;4.07;;;;;;;;;;2064631;28;20589;-53
2022/06/16 01:51:15;;;;;;;4.20;3.90;;;;;;;;;;2063237;28;20264;-51
2022/06/16 01:52:27;;;;;;;4.72;4.25;;;;;;;;;;2073168;28;20175;-55
2022/06/16 01:53:50;;;;;;;4.97;3.75;;;;;;;;;;2072755;28;20255;-56
2022/06/16 01:54:54;;;;;;;4.10;3.80;;;;;;;;;;2071818;28;20192;-55
2022/06/16 01:56:06;;;;;;;4.03;3.72;;;;;;;;;;2073090;28;20300;-54
2022/06/16 01:57:20;;;;;;;3.83;3.50;;;;;;;;;;2073193;28;20173;-55
2022/06/16 01:58:23;;;;;;;5.35;4.00;;;;;;;;;;2072755;28;20296;-57
2022/06/16 01:59:27;;;;;;;5.10;4.60;;;;;;;;;;2072800;28;20220;-57
2022/06/16 02:00:28;;;;;;;4.72;4.32;;;;;;;;;;2064579;28;20196;-54
2022/06/16 02:01:35;;;;;;;5.97;5.28;;;;;;;;;;2064843;28;20721;-53
2022/06/16 02:02:37;;;;;;;5.65;4.35;;;;;;;;;;2065900;28;20174;-58
2022/06/16 02:03:40;;;;;;;4.47;3.90;;;;;;;;;;2073195;28;20204;-54
2022/06/16 02:04:46;;;;;;;4.65;4.30;;;;;;;;;;2071964;28;20222;-56
2022/06/16 02:05:53;;;;;;;4.60;4.20;;;;;;;;;;2072715;28;20169;-55
2022/06/16 02:06:55;;;;;;;6.18;4.75;;;;;;;;;;2070692;28;20177;-51
2022/06/16 02:08:14;;;;;;;6.03;4.43;;;;;;;;;;2072655;28;20181;-55
2022/06/16 02:09:22;;;;;;;4.90;4.50;;;;;;;;;;2072896;28;20294;-56
2022/06/16 02:10:28;;;;;;;5.35;4.15;;;;;;;;;;2072999;28;20276;-59
2022/06/16 02:11:31;;;;;;;6.07;4.70;;;;;;;;;;2073482;28;20169;-58
2022/06/16 02:14:01;;;;;;;5.30;4.63;;;;;;;;;;2072805;28;20192;-55
2022/06/16 02:15:09;;;;;;;5.00;4.40;;;;;;;;;;2073285;28;20165;-52
2022/06/16 02:16:33;;;;;;;6.30;4.45;;;;;;;;;;2073450;28;20203;-57
2022/06/16 02:17:34;;;;;;;5.05;4.18;;;;;;;;;;2074078;28;20215;-57
2022/06/16 02:18:36;;;;;;;5.75;4.85;;;;;;;;;;2073911;28;20177;-53
2022/06/16 02:19:37;;;;;;;4.90;4.15;;;;;;;;;;2073682;28;20752;-51
2022/06/16 02:20:56;;;;;;;4.88;4.25;;;;;;;;;;2072659;28;20195;-58
2022/06/16 02:21:56;;;;;;;4.60;4.10;;;;;;;;;;2066025;28;20584;-56
2022/06/16 02:22:57;;;;;;;5.47;4.20;;;;;;;;;;2072370;28;20177;-54
2022/06/16 02:23:58;;;;;;;6.55;4.80;;;;;;;;;;2072124;28;20630;-51
2022/06/16 02:24:58;;;;;;;7.18;5.38;;;;;;;;;;2072270;28;20266;-52
2022/06/16 02:25:59;;;;;;;5.40;4.47;;;;;;;;;;2064705;28;20244;-57
2022/06/16 02:27:00;;;;;;;5.32;4.20;;;;;;;;;;2064119;28;20185;-54
2022/06/16 02:28:00;;;;;;;4.50;4.00;;;;;;;;;;2072750;28;20173;-54
2022/06/16 02:29:17;;;;;;;4.70;4.07;;;;;;;;;;2072463;28;20169;-57
2022/06/16 02:30:18;;;;;;;7.05;4.45;;;;;;;;;;2072748;28;20716;-54
2022/06/16 02:31:20;;;;;;;4.72;4.18;;;;;;;;;;2072472;28;20166;-58
2022/06/16 02:32:36;;;;;;;4.82;4.32;;;;;;;;;;2072699;28;20169;-56
2022/06/16 02:33:55;;;;;;;4.82;3.83;;;;;;;;;;2073387;28;20165;-52
2022/06/16 02:35:05;;;;;;;6.55;4.55;;;;;;;;;;2072411;28;20181;-57
2022/06/16 02:36:11;;;;;;;5.20;4.00;;;;;;;;;;2073061;28;20165;-61
2022/06/16 02:37:20;;;;;;;6.85;4.13;;;;;;;;;;2072845;28;20177;-56
2022/06/16 02:38:27;;;;;;;5.00;4.50;;;;;;;;;;2074193;28;20181;-58
2022/06/16 02:39:27;;;;;;;7.50;4.95;;;;;;;;;;2073403;28;20592;-54
2022/06/16 02:40:28;;;;;;;5.43;4.93;;;;;;;;;;2072784;28;20216;-52
2022/06/16 02:41:40;;;;;;;5.93;4.60;;;;;;;;;;2072746;28;20282;-58
2022/06/16 02:43:03;;;;;;;6.18;4.47;;;;;;;;;;2072702;28;20271;-56
2022/06/16 02:44:07;;;;;;;5.05;4.50;;;;;;;;;;2075435;28;20179;-59
2022/06/16 02:45:10;;;;;;;6.10;4.10;;;;;;;;;;2073151;28;20593;-58
2022/06/16 02:46:29;;;;;;;5.95;4.47;;;;;;;;;;2065108;28;20201;-57
2022/06/16 02:47:47;;;;;;;7.70;4.68;;;;;;;;;;2072923;28;20271;-56
2022/06/16 02:48:51;;;;;;;5.05;4.65;;;;;;;;;;2073233;28;20568;-56
2022/06/16 02:49:58;;;;;;;4.88;4.30;;;;;;;;;;2072615;28;21714;-58
2022/06/16 02:51:02;;;;;;;6.38;4.85;;;;;;;;;;2065236;28;20654;-58
2022/06/16 02:52:14;;;;;;;6.28;5.13;;;;;;;;;;2064787;28;20241;-55
2022/06/16 02:53:14;;;;;;;5.10;4.70;;;;;;;;;;2072573;28;20171;-54
2022/06/16 02:54:22;;;;;;;5.35;4.60;;;;;;;;;;2063639;28;20173;-53
2022/06/16 02:55:30;;;;;;;4.85;4.40;;;;;;;;;;2072629;28;20149;-56
2022/06/16 02:56:49;;;;;;;8.25;5.82;;;;;;;;;;2072609;28;20200;-55
2022/06/16 02:57:54;;;;;;;5.93;4.53;;;;;;;;;;2072540;28;20169;-54
2022/06/16 02:59:10;;;;;;;7.18;5.22;;;;;;;;;;2072410;28;20263;-55
2022/06/16 03:00:12;;;;;;;6.50;5.00;;;;;;;;;;2072231;28;20223;-52
2022/06/16 03:01:13;;;;;;;6.57;5.00;;;;;;;;;;2072299;28;20215;-53
2022/06/16 03:02:15;;;;;;;5.30;4.78;;;;;;;;;;2072568;28;20652;-57
2022/06/16 03:03:24;;;;;;;6.60;5.03;;;;;;;;;;2072581;28;20172;-58
2022/06/16 03:04:37;;;;;;;8.45;5.43;;;;;;;;;;2069534;28;20169;-55
2022/06/16 03:05:37;;;;;;;8.02;5.07;;;;;;;;;;2064439;28;20179;-56
2022/06/16 03:06:39;;;;;;;5.53;4.88;;;;;;;;;;2068208;28;20248;-55
2022/06/16 03:07:39;;;;;;;5.20;4.72;;;;;;;;;;2063928;28;20181;-59
2022/06/16 03:08:51;;;;;;;5.35;4.85;;;;;;;;;;2073812;28;20306;-53
2022/06/16 03:09:52;;;;;;;5.90;4.78;;;;;;;;;;2080326;28;20192;-56
2022/06/16 03:10:53;;;;;;;6.78;5.55;;;;;;;;;;2072916;28;20204;-57
2022/06/16 03:11:53;;;;;;;6.43;4.80;;;;;;;;;;2072193;28;20259;-57
2022/06/16 03:12:54;;;;;;;5.57;5.07;;;;;;;;;;2064098;28;20182;-55
2022/06/16 03:13:54;;;;;;;8.02;4.78;;;;;;;;;;2063799;28;20177;-58
2022/06/16 03:15:09;;;;;;;6.63;4.80;;;;;;;;;;2065975;28;20181;-58
2022/06/16 03:16:09;;;;;;;6.25;4.75;;;;;;;;;;2063943;28;20170;-53
2022/06/16 03:17:11;;;;;;;5.95;4.60;;;;;;;;;;2072264;28;20501;-55
2022/06/16 03:18:12;;;;;;;6.22;5.22;;;;;;;;;;2072154;28;20185;-53
2022/06/16 03:19:12;;;;;;;5.13;4.70;;;;;;;;;;2063824;28;20610;-54
2022/06/16 03:20:16;;;;;;;5.85;5.32;;;;;;;;;;2064557;28;20199;-55
2022/06/16 03:21:17;;;;;;;6.40;5.00;;;;;;;;;;2072791;28;20248;-57
2022/06/16 03:22:20;;;;;;;6.63;5.10;;;;;;;;;;2073029;28;20664;-58
2022/06/16 03:23:21;;;;;;;7.32;5.03;;;;;;;;;;2072464;28;20181;-53
2022/06/16 03:24:23;;;;;;;7.25;5.38;;;;;;;;;;2071089;28;20172;-58
2022/06/16 03:25:26;;;;;;;7.47;5.18;;;;;;;;;;2072273;28;20181;-55
2022/06/16 03:26:30;;;;;;;5.90;4.68;;;;;;;;;;2072085;28;20177;-53
2022/06/16 03:27:33;;;;;;;7.00;4.80;;;;;;;;;;2071908;28;20181;-51
2022/06/16 03:28:34;;;;;;;5.65;5.13;;;;;;;;;;2072223;28;20250;-55
2022/06/16 03:29:37;;;;;;;7.28;4.82;;;;;;;;;;2072799;28;20184;-54
2022/06/16 03:30:39;;;;;;;7.07;4.68;;;;;;;;;;2072093;28;20228;-56
2022/06/16 03:31:39;;;;;;;5.30;4.80;;;;;;;;;;2071934;28;20201;-56
2022/06/16 03:32:40;;;;;;;7.63;4.80;;;;;;;;;;2064054;28;20182;-56
2022/06/16 03:33:41;;;;;;;5.13;4.43;;;;;;;;;;2073052;28;20696;-54
2022/06/16 03:34:41;;;;;;;5.45;4.47;;;;;;;;;;2072928;28;20185;-59
2022/06/16 03:35:42;;;;;;;4.93;4.40;;;;;;;;;;2073817;28;20189;-57
2022/06/16 03:36:43;;;;;;;7.07;4.60;;;;;;;;;;2073847;28;20176;-56
2022/06/16 03:37:51;;;;;;;8.55;4.78;;;;;;;;;;2074729;28;20560;-51
2022/06/16 03:38:51;;;;;;;5.70;5.15;;;;;;;;;;2073976;28;20183;-57
2022/06/16 03:39:52;;;;;;;7.70;5.10;;;;;;;;;;2065811;28;20215;-54
2022/06/16 03:40:53;;;;;;;7.63;4.57;;;;;;;;;;2073885;28;20176;-55
2022/06/16 03:41:53;;;;;;;5.07;4.53;;;;;;;;;;2065145;28;20173;-56
2022/06/16 03:42:53;;;;;;;5.07;4.68;;;;;;;;;;2065781;28;20273;-52
2022/06/16 03:43:56;;;;;;;6.38;5.50;;;;;;;;;;2065389;28;20169;-51
2022/06/16 03:44:57;;;;;;;5.70;5.03;;;;;;;;;;2065525;28;20181;-56
2022/06/16 03:45:57;;;;;;;8.90;5.38;;;;;;;;;;2065648;28;20166;-54
2022/06/16 03:46:58;;;;;;;6.47;5.18;;;;;;;;;;2065658;28;20192;-54
2022/06/16 03:48:08;;;;;;;5.45;5.00;;;;;;;;;;2067016;28;20182;-53
2022/06/16 03:49:14;;;;;;;6.00;5.40;;;;;;;;;;2066544;28;20169;-56
2022/06/16 03:50:20;;;;;;;7.00;5.20;;;;;;;;;;2066233;28;20215;-53
2022/06/16 03:51:23;;;;;;;5.68;5.25;;;;;;;;;;2073479;28;20168;-51
2022/06/16 03:52:23;;;;;;;7.72;5.53;;;;;;;;;;2073951;28;20228;-53
2022/06/16 03:53:28;;;;;;;5.68;5.18;;;;;;;;;;2073857;28;20271;-56
2022/06/16 03:54:33;;;;;;;6.25;5.65;;;;;;;;;;2072973;28;20271;-56
2022/06/16 03:55:36;;;;;;;6.38;5.65;;;;;;;;;;2074281;28;20283;-50
2022/06/16 03:56:37;;;;;;;8.93;6.15;;;;;;;;;;2073360;28;20650;-56
2022/06/16 03:57:41;;;;;;;6.68;5.95;;;;;;;;;;2065677;28;20196;-54
2022/06/16 03:58:45;;;;;;;7.40;5.93;;;;;;;;;;2073636;28;20698;-54
2022/06/16 03:59:47;;;;;;;7.78;5.78;;;;;;;;;;2065403;28;20216;-54
2022/06/16 04:00:59;;;;;;;6.18;5.57;;;;;;;;;;2067166;28;20166;-57
2022/06/16 04:02:00;;;;;;;6.07;5.47;;;;;;;;;;2065343;28;20197;-53
2022/06/16 04:04:28;;;;;;;8.00;5.85;;;;;;;;;;2072782;28;20173;-52
2022/06/16 04:05:30;;;;;;;7.93;6.25;;;;;;;;;;2073727;28;20176;-59
2022/06/16 04:06:39;;;;;;;7.95;6.22;;;;;;;;;;2065294;28;20181;-58
2022/06/16 04:07:40;;;;;;;9.15;6.70;;;;;;;;;;2065595;28;20178;-54
2022/06/16 04:08:46;;;;;;;7.32;6.15;;;;;;;;;;2073569;28;20659;-53
2022/06/16 04:09:46;;;;;;;8.25;6.20;;;;;;;;;;2073661;28;20267;-55
2022/06/16 04:10:47;;;;;;;7.78;6.88;;;;;;;;;;2065429;28;20173;-58
2022/06/16 04:11:47;;;;;;;7.43;6.63;;;;;;;;;;2065525;28;20185;-55
2022/06/16 04:12:47;;;;;;;9.60;7.20;;;;;;;;;;2057525;28;20674;-57
2022/06/16 04:14:00;;;;;;;8.68;6.68;;;;;;;;;;2066139;28;20170;-56
2022/06/16 04:15:00;;;;;;;9.65;6.80;;;;;;;;;;2066184;28;20675;-56
2022/06/16 04:16:01;;;;;;;9.82;7.38;;;;;;;;;;2073761;28;20177;-57
2022/06/16 04:17:02;;;;;;;8.90;5.85;;;;;;;;;;2073326;28;20196;-54
2022/06/16 04:18:17;;;;;;;6.65;6.05;;;;;;;;;;2067145;28;20246;-55
2022/06/16 04:19:19;;;;;;;7.57;6.43;;;;;;;;;;2065461;28;20227;-52
2022/06/16 04:20:19;;;;;;;6.93;6.32;;;;;;;;;;2057567;28;20288;-55
2022/06/16 04:21:28;;;;;;;7.15;6.35;;;;;;;;;;2064872;28;20200;-55
2022/06/16 04:22:48;;;;;;;7.43;6.63;;;;;;;;;;2059799;28;20174;-52
2022/06/16 04:23:51;;;;;;;7.05;6.38;;;;;;;;;;2061610;28;20939;-56
2022/06/16 04:24:53;;;;;;;7.95;6.68;;;;;;;;;;2064540;28;20178;-57
2022/06/16 04:25:53;;;;;;;6.93;6.38;;;;;;;;;;2073622;28;20161;-52
2022/06/16 04:26:57;;;;;;;7.60;6.20;;;;;;;;;;2073412;28;20175;-55
2022/06/16 04:28:02;;;;;;;7.28;6.68;;;;;;;;;;2065502;28;20190;-57
2022/06/16 04:29:07;;;;;;;8.48;6.43;;;;;;;;;;2059535;28;20178;-55
2022/06/16 04:30:09;;;;;;;7.93;6.80;;;;;;;;;;2065386;28;20702;-55
2022/06/16 04:31:09;;;;;;;7.13;6.43;;;;;;;;;;2065389;28;20261;-58
2022/06/16 04:32:10;;;;;;;11.20;6.95;;;;;;;;;;2065560;28;20261;-52
2022/06/16 04:33:18;;;;;;;8.63;6.45;;;;;;;;;;2066634;28;20154;-56
2022/06/16 04:34:19;;;;;;;8.75;7.13;;;;;;;;;;2065222;28;20205;-54
2022/06/16 04:35:20;;;;;;;7.07;6.38;;;;;;;;;;2065717;28;20523;-53
2022/06/16 04:36:36;;;;;;;7.25;6.15;;;;;;;;;;2067458;28;20165;-57
2022/06/16 04:37:44;;;;;;;8.40;7.03;;;;;;;;;;2073558;28;20181;-56
2022/06/16 04:38:46;;;;;;;9.13;6.25;;;;;;;;;;2064920;28;20338;-52
2022/06/16 04:39:46;;;;;;;7.65;6.18;;;;;;;;;;2065329;28;20197;-57
2022/06/16 04:40:47;;;;;;;7.82;6.72;;;;;;;;;;2073416;28;20642;-56
2022/06/16 04:41:50;;;;;;;8.07;6.95;;;;;;;;;;2073380;28;20208;-56
2022/06/16 04:42:52;;;;;;;9.93;6.75;;;;;;;;;;2065840;28;20182;-56
2022/06/16 04:43:53;;;;;;;7.38;6.50;;;;;;;;;;2065170;28;20180;-54
2022/06/16 04:44:53;;;;;;;8.93;6.47;;;;;;;;;;2072793;28;20185;-57
2022/06/16 04:45:55;;;;;;;8.68;6.40;;;;;;;;;;2073499;28;20249;-52
2022/06/16 04:46:58;;;;;;;6.82;6.20;;;;;;;;;;2073358;28;20609;-54
2022/06/16 04:48:01;;;;;;;9.82;5.90;;;;;;;;;;2073711;28;20592;-58
2022/06/16 04:49:06;;;;;;;8.25;6.15;;;;;;;;;;2074707;28;20184;-55
2022/06/16 04:50:18;;;;;;;10.75;6.60;;;;;;;;;;2073299;28;20192;-54
2022/06/16 04:51:21;;;;;;;6.82;6.22;;;;;;;;;;2074107;28;20181;-53
2022/06/16 04:52:26;;;;;;;7.88;6.70;;;;;;;;;;2065807;28;20170;-56
2022/06/16 04:53:28;;;;;;;9.75;6.75;;;;;;;;;;2065613;28;20264;-55
2022/06/16 04:54:42;;;;;;;9.52;7.20;;;;;;;;;;2072142;28;20184;-54
2022/06/16 04:56:02;;;;;;;8.93;7.05;;;;;;;;;;2073828;28;20165;-52
2022/06/16 04:57:24;;;;;;;10.70;6.50;;;;;;;;;;2073583;28;20588;-54
2022/06/16 04:58:42;;;;;;;8.73;6.38;;;;;;;;;;2073524;28;20212;-56
2022/06/16 05:00:03;;;;;;;7.43;6.60;;;;;;;;;;2073896;28;20205;-57
2022/06/16 05:01:26;;;;;;;9.25;6.70;;;;;;;;;;2074618;28;20211;-54
2022/06/16 05:02:41;;;;;;;7.00;6.38;;;;;;;;;;2074830;28;20175;-58
2022/06/16 05:04:00;;;;;;;6.95;6.25;;;;;;;;;;2073643;28;20592;-50
2022/06/16 05:05:14;;;;;;;8.75;6.45;;;;;;;;;;2074739;28;20160;-55
2022/06/16 05:06:32;;;;;;;9.32;7.18;;;;;;;;;;2073414;28;20200;-57
2022/06/16 05:07:51;;;;;;;7.40;6.78;;;;;;;;;;2067715;28;20165;-55
2022/06/16 05:09:11;;;;;;;7.95;7.13;;;;;;;;;;2064694;28;20807;-52
2022/06/16 05:10:30;;;;;;;9.13;7.35;;;;;;;;;;2071889;28;20232;-56
2022/06/16 05:11:42;;;;;;;9.88;7.00;;;;;;;;;;2076026;28;20696;-56
2022/06/16 05:13:01;;;;;;;8.10;6.95;;;;;;;;;;2069785;28;20183;-54
2022/06/16 05:14:21;;;;;;;7.13;6.43;;;;;;;;;;2066926;28;20196;-52
2022/06/16 05:15:40;;;;;;;12.52;7.18;;;;;;;;;;2069095;28;20550;-57
2022/06/16 05:16:47;;;;;;;8.98;6.18;;;;;;;;;;2068797;28;20182;-54
2022/06/16 05:18:06;;;;;;;9.15;6.68;;;;;;;;;;2068473;28;20169;-53
2022/06/16 05:19:33;;;;;;;10.82;7.30;;;;;;;;;;2071480;28;20192;-56
2022/06/16 05:21:06;;;;;;;8.95;7.63;;;;;;;;;;2072585;28;20216;-53
2022/06/16 05:22:27;;;;;;;7.93;6.65;;;;;;;;;;2058893;28;20190;-58
2022/06/16 05:23:50;;;;;;;10.07;7.35;;;;;;;;;;2059924;28;20191;-56
2022/06/16 05:25:26;;;;;;;10.32;7.70;;;;;;;;;;2054378;28;20208;-57
2022/06/16 05:26:33;;;;;;;8.07;7.05;;;;;;;;;;2067972;28;20238;-60
2022/06/16 05:27:54;;;;;;;7.78;6.22;;;;;;;;;;2067550;28;20189;-55
2022/06/16 05:29:19;;;;;;;9.55;6.82;;;;;;;;;;2051448;29;20186;-59
2022/06/16 05:30:44;;;;;;;8.07;7.28;;;;;;;;;;2059644;28;20695;-59
2022/06/16 05:32:03;;;;;;;9.90;7.43;;;;;;;;;;2065898;28;20177;-55
2022/06/16 05:33:19;;;;;;;9.85;6.88;;;;;;;;;;2071001;28;20157;-58
2022/06/16 05:34:27;;;;;;;12.02;7.15;;;;;;;;;;2074459;28;20748;-56
2022/06/16 05:36:00;;;;;;;7.97;6.70;;;;;;;;;;2059726;28;20637;-57
2022/06/16 05:37:12;;;;;;;8.27;7.25;;;;;;;;;;2072085;28;20177;-57
2022/06/16 05:38:31;;;;;;;9.88;6.93;;;;;;;;;;2069102;28;20624;-59
2022/06/16 05:39:49;;;;;;;13.73;7.70;;;;;;;;;;2072688;28;20192;-60
2022/06/16 05:41:12;;;;;;;9.27;7.18;;;;;;;;;;2073799;28;20173;-54
2022/06/16 05:42:31;;;;;;;7.50;6.80;;;;;;;;;;2073968;28;20177;-60
2022/06/16 05:43:48;;;;;;;8.02;6.72;;;;;;;;;;2073649;28;20767;-60
2022/06/16 05:45:08;;;;;;;9.57;6.75;;;;;;;;;;2070172;28;20161;-61
2022/06/16 05:46:41;;;;;;;8.23;7.00;;;;;;;;;;2064968;28;20193;-55
2022/06/16 05:47:42;;;;;;;10.40;6.47;;;;;;;;;;2066689;28;20192;-51
2022/06/16 05:48:42;;;;;;;10.32;7.35;;;;;;;;;;2057326;28;20178;-54
2022/06/16 05:49:46;;;;;;;8.00;6.75;;;;;;;;;;2057589;28;20274;-50
2022/06/16 05:51:04;;;;;;;7.20;6.53;;;;;;;;;;2073987;28;20279;-55
2022/06/16 05:52:06;;;;;;;6.85;5.97;;;;;;;;;;2081623;28;20176;-53
2022/06/16 05:53:08;;;;;;;8.65;6.65;;;;;;;;;;2073865;28;20203;-55
2022/06/16 05:54:13;;;;;;;10.98;6.40;;;;;;;;;;2068018;28;20165;-52
2022/06/16 05:55:17;;;;;;;7.75;6.45;;;;;;;;;;2076793;28;20176;-53
2022/06/16 05:56:18;;;;;;;8.80;6.57;;;;;;;;;;2069470;28;20260;-53
2022/06/16 05:57:19;;;;;;;6.55;5.90;;;;;;;;;;2076297;28;20169;-52
2022/06/16 05:58:19;;;;;;;9.95;6.45;;;;;;;;;;2080775;28;20184;-53
2022/06/16 05:59:23;;;;;;;7.03;5.90;;;;;;;;;;2074236;28;20232;-52
2022/06/16 06:00:26;;;;;;;8.07;6.03;;;;;;;;;;2073283;28;20189;-53
2022/06/16 06:01:28;;;;;;;7.43;6.47;;;;;;;;;;2082448;28;20187;-55
2022/06/16 06:02:36;;;;;;;7.43;6.70;;;;;;;;;;2090075;28;20627;-52
2022/06/16 06:03:38;;;;;;;6.82;6.05;;;;;;;;;;2082143;28;20176;-53
2022/06/16 06:04:39;;;;;;;11.82;7.95;;;;;;;;;;2065785;28;20169;-53
2022/06/16 06:05:41;;;;;;;7.38;6.57;;;;;;;;;;2077624;28;20611;-57
2022/06/16 06:06:44;;;;;;;7.97;6.05;;;;;;;;;;2078836;28;20181;-52
2022/06/16 06:17:17;;;;;;;7.22;5.40;;;;;;;;;;2083060;28;20271;-55
2022/06/16 06:18:18;;;;;;;6.75;5.30;;;;;;;;;;2079084;28;20188;-52
2022/06/16 06:19:25;;;;;;;6.20;5.60;;;;;;;;;;2086958;28;20171;-53
2022/06/16 06:20:25;;;;;;;9.38;5.20;;;;;;;;;;2082253;28;20731;-52
2022/06/16 06:22:45;;;;;;;6.72;5.93;;;;;;;;;;2076500;28;20540;-52
2022/06/16 06:23:47;;;;;;;7.93;4.47;;;;;;;;;;2083255;28;20265;-51
2022/06/16 06:24:53;;;;;;;7.40;6.40;;;;;;;;;;2082259;28;20180;-53
2022/06/16 06:25:59;;;;;;;5.65;5.15;;;;;;;;;;2077016;28;20248;-54
2022/06/16 06:27:00;;;;;;;7.03;4.88;;;;;;;;;;2073567;28;20173;-52
2022/06/16 06:28:01;;;;;;;4.85;4.40;;;;;;;;;;2064984;28;20189;-53
2022/06/16 06:29:01;;;;;;;4.75;4.32;;;;;;;;;;2075929;28;20176;-55
2022/06/16 06:30:12;;;;;;;5.15;4.68;;;;;;;;;;2084471;28;20209;-52
2022/06/16 06:31:13;;;;;;;6.60;4.40;;;;;;;;;;2082604;28;20700;-52
2022/06/16 06:32:14;;;;;;;5.97;4.90;;;;;;;;;;2086826;28;20179;-52
2022/06/16 06:33:15;;;;;;;5.63;5.13;;;;;;;;;;2081985;28;20179;-55
2022/06/16 06:34:15;;;;;;;6.95;4.97;;;;;;;;;;2072708;28;20173;-54
2022/06/16 06:35:16;;;;;;;7.90;6.00;;;;;;;;;;2073073;28;20185;-51
2022/06/16 06:36:16;;;;;;;7.88;5.68;;;;;;;;;;2072408;28;20169;-52
2022/06/16 06:37:19;;;;;;;6.53;5.22;;;;;;;;;;2080307;28;20617;-52
2022/06/16 06:38:19;;;;;;;8.30;5.07;;;;;;;;;;2083871;28;20663;-53
2022/06/16 06:39:19;;;;;;;8.43;4.50;;;;;;;;;;2076337;28;20180;-52
2022/06/16 06:40:22;;;;;;;8.38;5.13;;;;;;;;;;2087127;28;20280;-54
2022/06/16 06:41:22;;;;;;;5.05;4.35;;;;;;;;;;2088170;28;20691;-54
2022/06/16 06:42:23;;;;;;;5.90;4.70;;;;;;;;;;2082406;28;20168;-55
2022/06/16 06:43:23;;;;;;;4.93;4.30;;;;;;;;;;2087815;28;20217;-54
2022/06/16 06:44:24;;;;;;;7.05;4.53;;;;;;;;;;2087673;28;20752;-52
2022/06/16 06:45:24;;;;;;;9.07;4.10;;;;;;;;;;2088548;28;20207;-56
2022/06/16 06:46:25;;;;;;;6.93;4.38;;;;;;;;;;2089524;28;20674;-51
2022/06/16 06:47:27;;;;;;;5.35;4.00;;;;;;;;;;2089304;28;20164;-50
2022/06/16 06:48:27;;;;;;;8.02;4.35;;;;;;;;;;2089186;28;20667;-52
2022/06/16 06:49:28;;;;;;;6.35;4.10;;;;;;;;;;2090026;28;20194;-52
2022/06/16 06:50:33;;;;;;;5.47;4.45;;;;;;;;;;2082428;28;20237;-57
2022/06/16 06:51:34;;;;;;;4.38;3.97;;;;;;;;;;2081942;28;20180;-53
2022/06/16 06:52:34;;;;;;;5.03;3.97;;;;;;;;;;2081136;28;20250;-52